• Join FlightAware (Why Join?)
  • Login
  • US Flag 
02:23AM EDT


 

Airport Tracker/Info


-or-


 

Live Flight TrackerFlight Track Log ✈ SWA2624 ✈ 25-Nov-2013 ✈ KPHX - KRDU

Flight Track Log - Related Links

Times and Time Zones

All times are in EST time to prevent confusion due to time zone crossing. See the SWA2624 flight status page for this flight to view local times or setup timezone preferences in your user account.

Time Position Orientation Groundspeed Altitude Reporting Facility
EST Latitude Longitude Course Direction KTS MPH feet Rate Location/Type
12:28PM 33.4333 -111.9833 90° East 159 183 1,900  Level Phoenix TRACON
12:29PM 33.4333 -111.9500 90° East 186 214 3,000 1,800 Climbing Phoenix TRACON
12:30PM 33.4333 -111.8667 90° East 262 302 5,000 2,100 Climbing Phoenix TRACON
12:31PM 33.4197 -111.8247 111° Southeast 269 310 6,300 2,640 Climbing Albuquerque Center
12:32PM 33.4031 -111.7372 103° East 276 318 9,200 2,280 Climbing Albuquerque Center
12:33PM 33.4292 -111.6497 70° East 282 325 11,000 1,680 Climbing Albuquerque Center
12:34PM 33.4581 -111.5411 72° East 337 388 12,700 2,400 Climbing Albuquerque Center
12:35PM 33.4950 -111.4042 72° East 361 415 16,000 2,700 Climbing Albuquerque Center
12:36PM 33.5122 -111.2819 80° East 375 432 18,400 2,220 Climbing Albuquerque Center
12:37PM 33.5272 -111.1572 82° East 381 438 20,600 1,980 Climbing Albuquerque Center
12:38PM 33.5414 -111.0283 82° East 390 449 22,600 1,800 Climbing Albuquerque Center
12:39PM 33.5567 -110.8961 82° East 398 458 24,400 1,800 Climbing Albuquerque Center
12:40PM 33.6036 -110.7469 69° East 400 460 26,300 1,560 Climbing Albuquerque Center
12:41PM 33.6444 -110.6206 69° East 404 465 27,600 1,440 Climbing Albuquerque Center
12:42PM 33.6853 -110.4919 69° East 411 473 29,300 1,680 Climbing Albuquerque Center
12:43PM 33.7292 -110.3583 68° East 412 474 31,100 1,560 Climbing Albuquerque Center
12:44PM 33.7692 -110.2339 69° East 405 466 32,600 1,380 Climbing Albuquerque Center
12:45PM 33.8083 -110.1111 69° East 397 457 34,000 1,020 Climbing Albuquerque Center
12:46PM 33.8467 -109.9889 69° East 393 452 34,800 480 Climbing Albuquerque Center
12:47PM 33.8872 -109.8628 69° East 399 459 35,000 60 Climbing Albuquerque Center
12:48PM 33.9358 -109.7092 69° East 407 468 35,000  Level Albuquerque Center
12:49PM 33.9764 -109.5781 70° East 414 476 35,000  Level Albuquerque Center
12:50PM 34.0181 -109.4469 69° East 416 479 35,000  Level Albuquerque Center
12:51PM 34.0594 -109.3136 69° East 421 484 35,000  Level Albuquerque Center
12:52PM 34.1000 -109.1806 70° East 422 486 35,000  Level Albuquerque Center
12:53PM 34.1453 -109.0364 69° East 422 486 35,000  Level Albuquerque Center
12:54PM 34.1781 -108.8869 75° East 417 480 35,000  Level Albuquerque Center
12:56PM 34.1931 -108.7439 83° East 423 487 35,000  Level Albuquerque Center
12:57PM 34.2081 -108.6022 83° East 425 489 35,000  Level Albuquerque Center
12:58PM 34.2236 -108.4567 83° East 425 489 35,000  Level Albuquerque Center
12:59PM 34.2392 -108.3061 83° East 427 491 35,000  Level Albuquerque Center
01:00PM 34.2525 -108.1689 83° East 418 481 35,000  Level Albuquerque Center
01:01PM 34.2647 -108.0308 84° East 415 478 35,000  Level Albuquerque Center
01:02PM 34.2786 -107.8961 83° East 408 470 35,000  Level Albuquerque Center
01:03PM 34.2922 -107.7619 83° East 404 465 35,000  Level Albuquerque Center
01:04PM 34.3056 -107.6239 83° East 411 473 35,000  Level Albuquerque Center
01:05PM 34.3225 -107.4581 83° East 415 478 35,000  Level Albuquerque Center
01:06PM 34.3356 -107.3197 83° East 415 478 35,000  Level Albuquerque Center
01:07PM 34.3514 -107.1658 83° East 419 482 35,000  Level Albuquerque Center
01:08PM 34.3658 -107.0275 83° East 417 480 35,000  Level Albuquerque Center
01:09PM 34.3786 -106.8756 84° East 421 484 35,000  Level Albuquerque Center
01:10PM 34.3917 -106.7367 83° East 419 482 35,000  Level Albuquerque Center
01:11PM 34.3922 -106.5947 90° East 423 487 35,000  Level Albuquerque Center
01:12PM 34.3889 -106.4478 92° East 432 497 35,000  Level Albuquerque Center
01:13PM 34.3858 -106.3036 91° East 432 497 35,000  Level Albuquerque Center
01:14PM 34.3806 -106.1403 92° East 429 494 35,000  Level Albuquerque Center
01:15PM 34.3761 -105.9919 92° East 434 499 35,000  Level Albuquerque Center
01:16PM 34.3731 -105.8419 91° East 439 505 35,000  Level Albuquerque Center
01:17PM 34.3672 -105.6903 93° East 445 512 35,000  Level Albuquerque Center
01:18PM 34.3756 -105.5406 86° East 444 511 35,000  Level Albuquerque Center
01:19PM 34.3831 -105.3900 87° East 445 512 35,000  Level Albuquerque Center
01:20PM 34.3925 -105.2172 86° East 440 506 35,000  Level Albuquerque Center
01:21PM 34.3992 -105.0681 87° East 440 506 35,000  Level Albuquerque Center
01:22PM 34.4072 -104.9186 86° East 442 509 35,000  Level Albuquerque Center
01:23PM 34.4058 -104.7681 91° East 444 511 35,000  Level Albuquerque Center
01:24PM 34.3981 -104.6158 94° East 449 517 35,000  Level Albuquerque Center
01:25PM 34.3919 -104.4614 93° East 455 524 35,000  Level Albuquerque Center
01:27PM 34.3850 -104.3061 93° East 460 529 35,000  Level Albuquerque Center
01:28PM 34.3761 -104.1242 93° East 461 531 35,000  Level Albuquerque Center
01:29PM 34.3692 -103.9664 93° East 465 535 35,000  Level Albuquerque Center
01:30PM 34.3614 -103.8097 93° East 464 534 35,000  Level Albuquerque Center
01:31PM 34.3522 -103.6489 94° East 471 542 35,000  Level Albuquerque Center
01:32PM 34.3450 -103.4911 93° East 470 541 35,000  Level Albuquerque Center
01:33PM 34.3364 -103.3336 94° East 469 540 35,000  Level Albuquerque Center
01:34PM 34.3275 -103.1728 94° East 472 543 35,000  Level Albuquerque Center
01:35PM 34.3183 -102.9994 94° East 471 542 35,000  Level Albuquerque Center
01:36PM 34.3081 -102.8397 94° East 475 547 35,000  Level Albuquerque Center
01:37PM 34.2992 -102.6831 94° East 472 543 35,000  Level Albuquerque Center
01:38PM 34.2900 -102.5250 94° East 473 544 35,000  Level Albuquerque Center
01:39PM 34.2781 -102.3342 94° East 476 548 35,000  Level Albuquerque Center
01:40PM 34.2681 -102.1753 94° East 476 548 35,000  Level Albuquerque Center
01:41PM 34.2581 -102.0175 94° East 475 547 35,000  Level Albuquerque Center
01:42PM 34.2475 -101.8581 95° East 477 549 35,000  Level Fort Worth Center
01:43PM 34.2372 -101.7003 94° East 475 547 35,000  Level Fort Worth Center
01:44PM 34.2269 -101.5433 94° East 473 544 35,000  Level Fort Worth Center
01:45PM 34.2128 -101.3508 95° East 478 550 35,000  Level Fort Worth Center
01:46PM 34.2017 -101.1900 95° East 481 554 35,000  Level Fort Worth Center
01:47PM 34.1903 -101.0272 95° East 486 559 35,000  Level Fort Worth Center
01:48PM 34.1786 -100.8642 95° East 489 563 35,000  Level Fort Worth Center
01:49PM 34.1656 -100.7014 95° East 489 563 35,000  Level Fort Worth Center
01:50PM 34.1542 -100.5386 95° East 489 563 35,000  Level Fort Worth Center
01:51PM 34.1403 -100.3678 96° East 493 567 35,000  Level Fort Worth Center
01:52PM 34.1275 -100.2047 95° East 488 562 35,000  Level Fort Worth Center
01:53PM 34.1139 -100.0414 96° East 488 562 35,000  Level Fort Worth Center
01:54PM 34.1008 -99.8789 95° East 487 560 35,000  Level Fort Worth Center
01:55PM 34.0875 -99.7136 96° East 493 567 35,000  Level Fort Worth Center
01:56PM 34.0840 -99.6834 96° East  Level FlightAware Approximate
01:56PM 34.0706 -99.5178 96° East 491 565 35,000  Level Fort Worth Center
01:57PM 34.0567 -99.3531 96° East 491 565 35,000  Level Fort Worth Center
01:58PM 34.0425 -99.1889 96° East 492 566 35,000  Level Fort Worth Center
01:59PM 34.0278 -99.0303 96° East 493 567 35,000  Level Fort Worth Center
02:00PM 34.0128 -98.8664 96° East 493 567 35,000  Level Fort Worth Center
02:01PM 33.9981 -98.7044 96° East 487 560 35,000  Level Fort Worth Center
02:02PM 33.9914 -98.5058 92° East 500 575 35,000  Level Fort Worth Center
02:04PM 34.0028 -98.3375 85° East 501 577 35,000  Level Fort Worth Center
02:05PM 34.0133 -98.1700 86° East 503 579 35,000  Level Fort Worth Center
02:06PM 34.0228 -98.0019 86° East 505 581 35,000  Level Fort Worth Center
02:07PM 34.0331 -97.8322 86° East 506 582 35,000  Level Fort Worth Center
02:08PM 34.0425 -97.6636 86° East 504 580 35,000  Level Fort Worth Center
02:09PM 34.0525 -97.4950 86° East 504 580 35,000  Level Fort Worth Center
02:10PM 34.0606 -97.3261 87° East 504 580 35,000  Level Fort Worth Center
02:11PM 34.0717 -97.1239 86° East 502 578 35,000  Level Fort Worth Center
02:12PM 34.0806 -96.9553 86° East 503 579 35,000  Level Fort Worth Center
02:13PM 34.0883 -96.7878 87° East 501 577 35,000  Level Fort Worth Center
02:14PM 34.0972 -96.6194 86° East 503 579 35,000  Level Fort Worth Center
02:15PM 34.1053 -96.4406 87° East 502 578 35,000  Level Fort Worth Center
02:16PM 34.1117 -96.2725 87° East 504 580 35,000  Level Fort Worth Center
02:17PM 34.1214 -96.1019 86° East 510 587 35,000  Level Fort Worth Center
02:18PM 34.1283 -95.9325 87° East 509 586 35,000  Level Fort Worth Center
02:19PM 34.1344 -95.7614 87° East 513 590 35,000  Level Fort Worth Center
02:20PM 34.1414 -95.5903 87° East 513 590 35,000  Level Fort Worth Center
02:21PM 34.1497 -95.4042 87° East 514 592 35,000  Level Fort Worth Center
02:22PM 34.1556 -95.2319 88° East 514 592 35,000  Level Fort Worth Center
02:23PM 34.1617 -95.0606 87° East 513 590 35,000  Level Fort Worth Center
02:24PM 34.1694 -94.8525 87° East 519 597 35,000  Level Fort Worth Center
02:25PM 34.1747 -94.6792 88° East 517 595 35,000  Level Fort Worth Center
02:26PM 34.1797 -94.5089 88° East 509 586 35,000  Level Fort Worth Center
02:27PM 34.1867 -94.3356 87° East 513 590 35,000  Level Fort Worth Center
02:28PM 34.1914 -94.1639 88° East 512 589 35,000  Level Fort Worth Center
02:29PM 34.1950 -93.9897 89° East 515 593 35,000  Level Fort Worth Center
02:30PM 34.2000 -93.8156 88° East 518 596 35,000  Level Fort Worth Center
02:31PM 34.2042 -93.6406 88° East 519 597 35,000  Level Fort Worth Center
02:32PM 34.2086 -93.4303 88° East 520 598 35,000  Level Fort Worth Center
02:33PM 34.2117 -93.2569 89° East 518 596 35,000  Level Fort Worth Center
02:34PM 34.2158 -93.0833 88° East 518 596 35,000  Level Memphis Center
02:35PM 34.2189 -92.9072 89° East 522 601 35,000  Level Memphis Center
02:36PM 34.2219 -92.7289 89° East 527 606 35,000  Level Memphis Center
02:37PM 34.2247 -92.5406 89° East 529 609 35,000  Level Memphis Center
02:38PM 34.2272 -92.3631 89° East 531 611 35,000  Level Memphis Center
02:40PM 34.2289 -92.1897 89° East 524 603 35,000  Level Memphis Center
02:41PM 34.2314 -92.0142 89° East 525 604 35,000  Level Memphis Center
02:42PM 34.2331 -91.8378 89° East 527 606 35,000  Level Memphis Center
02:43PM 34.2344 -91.6486 89° East 526 605 35,000 420 Level Memphis Center
02:44PM 34.2361 -91.4408 89° East 526 605 35,900 960 Climbing Memphis Center
02:45PM 34.2364 -91.2656 90° East 520 598 37,000 480 Climbing Memphis Center
02:46PM 34.2372 -91.0919 90° East 514 592 37,000  Level Memphis Center
02:47PM 34.2372 -90.9169 90° East 517 595 37,000  Level Memphis Center
02:48PM 34.2372 -90.7414 90° East 519 597 37,000  Level Memphis Center
02:49PM 34.2375 -90.5653 90° East 520 598 37,000  Level Memphis Center
02:50PM 34.2378 -90.3911 90° East 518 596 37,000  Level Memphis Center
02:51PM 34.2358 -90.2164 91° East 518 596 37,000  Level Memphis Center
02:52PM 34.2350 -90.0131 90° East 518 596 37,000  Level Memphis Center
02:53PM 34.2339 -89.8397 90° East 516 594 37,000  Level Memphis Center
02:54PM 34.2325 -89.6664 91° East 515 593 37,000  Level Memphis Center
02:55PM 34.2317 -89.4933 90° East 515 593 37,000  Level Memphis Center
02:56PM 34.2294 -89.3203 91° East 514 592 37,000  Level Memphis Center
02:57PM 34.2272 -89.1481 91° East 512 589 37,000  Level Memphis Center
02:58PM 34.2247 -88.9744 91° East 513 590 37,000  Level Memphis Center
02:59PM 34.2219 -88.7775 91° East 514 592 37,000  Level Memphis Center
03:00PM 34.2194 -88.6061 91° East 514 592 37,000  Level Memphis Center
03:01PM 34.2172 -88.4339 91° East 513 590 37,000  Level Memphis Center
03:02PM 34.2125 -88.2628 92° East 514 592 37,000  Level Memphis Center
03:03PM 34.2094 -88.0911 91° East 513 590 37,000  Level Memphis Center
03:04PM 34.2053 -87.9203 92° East 513 590 37,000  Level Memphis Center
03:05PM 34.2017 -87.7308 91° East 513 590 37,000  Level Memphis Center
03:06PM 34.1953 -87.5572 92° East 514 592 37,000  Level Memphis Center
03:07PM 34.1914 -87.3819 91° East 517 595 37,000  Level Memphis Center
03:08PM 34.1872 -87.2067 92° East 515 593 37,000  Level Memphis Center
03:09PM 34.1806 -87.0000 92° East 516 594 37,000  Level Memphis Center
03:10PM 34.1761 -86.8278 92° East 516 594 37,000  Level Memphis Center
03:11PM 34.1708 -86.6544 92° East 518 596 37,000  Level Memphis Center
03:12PM 34.1661 -86.5117 92° East 515 593 37,000  Level Atlanta Center
03:13PM 34.1589 -86.3383 93° East 515 593 37,000  Level Atlanta Center
03:14PM 34.1517 -86.1625 93° East 515 593 37,000  Level Atlanta Center
03:15PM 34.1461 -85.9867 92° East 515 593 37,000  Level Atlanta Center
03:16PM 34.1406 -85.8158 92° East 520 598 37,000  Level Atlanta Center
03:17PM 34.1364 -85.6625 92° East 506 582 37,000  Level Atlanta Center
03:18PM 34.1300 -85.4894 93° East 512 589 37,000  Level Atlanta Center
03:19PM 34.1217 -85.3161 93° East 518 596 37,000  Level Atlanta Center
03:20PM 34.1128 -85.1403 93° East 518 596 37,000  Level Atlanta Center
03:21PM 34.1039 -84.9494 93° East 518 596 37,000  Level Atlanta Center
03:22PM 34.0947 -84.7889 94° East 518 596 37,000  Level Atlanta Center
03:23PM 34.0850 -84.6131 94° East 518 596 37,000  Level Atlanta Center
03:24PM 34.0733 -84.4225 94° East 518 596 37,000  Level Atlanta Center
03:25PM 34.0633 -84.2444 94° East 518 596 37,000  Level Atlanta Center
03:26PM 34.0572 -84.0789 93° East 529 609 37,000  Level Atlanta Center
03:27PM 34.0489 -83.9033 93° East 529 609 37,000  Level Atlanta Center
03:28PM 34.0358 -83.7281 95° East 529 609 37,000  Level Atlanta Center
03:29PM 34.0269 -83.5550 93° East 524 603 37,000  Level Atlanta Center
03:30PM 34.0178 -83.3747 93° East 524 603 37,000 -240 Level Atlanta Center
03:31PM 34.0061 -83.1817 94° East 524 603 36,600 -660 Descending Atlanta Center
03:32PM 33.9944 -83.0092 95° East 524 603 35,700 -1,440 Descending Atlanta Center
03:34PM 33.9761 -82.7072 94° East 506 582 32,700 -1,620 Descending Jacksonville Center
03:35PM 33.9672 -82.5344 94° East 501 577 31,200 -900 Descending Jacksonville Center
03:36PM 33.9564 -82.3617 94° East 507 583 31,000 -120 Descending Jacksonville Center
03:37PM 33.9431 -82.1867 95° East 519 597 31,000  Level Jacksonville Center
03:38PM 33.9314 -82.0139 95° East 519 597 31,000  Level Jacksonville Center
03:39PM 33.9175 -81.8439 96° East 519 597 31,000  Level Jacksonville Center
03:40PM 33.9453 -81.6783 79° East 503 579 31,000  Level Jacksonville Center
03:41PM 34.0253 -81.5319 57° Northeast 500 575 31,000 -540 Level Jacksonville Center
03:42PM 34.1008 -81.3928 57° Northeast 489 563 30,000 -1,500 Descending Jacksonville Center
03:43PM 34.1722 -81.2561 58° Northeast 489 563 28,100 -1,500 Descending Jacksonville Center
03:44PM 34.2433 -81.1192 58° Northeast 482 555 27,000 -600 Descending Jacksonville Center
03:45PM 34.3061 -80.9922 59° Northeast 462 532 27,000  Level Jacksonville Center
03:46PM 34.3731 -80.8625 58° Northeast 448 516 27,000  Level Jacksonville Center
03:47PM 34.4417 -80.7275 58° Northeast 459 528 27,000  Level Jacksonville Center
03:48PM 34.5144 -80.5919 57° Northeast 465 535 27,000 -900 Level Jacksonville Center
03:50PM 34.6725 -80.2789 58° Northeast 435 501 24,000 -900 Descending Washington Center
03:51PM 34.7314 -80.1611 59° Northeast 442 509 24,000 -540 Level Washington Center
03:52PM 34.8047 -80.0411 53° Northeast 442 509 23,000 -900 Descending Washington Center
03:53PM 34.9025 -79.9353 42° Northeast 426 490 22,300 -1,260 Descending Washington Center
03:54PM 34.9853 -79.8408 43° Northeast 414 476 20,500 -1,860 Descending Washington Center
03:55PM 35.0697 -79.7486 42° Northeast 402 463 18,700 -1,860 Descending Washington Center
03:56PM 35.1564 -79.6567 41° Northeast 402 463 16,900 -1,980 Descending Washington Center
03:57PM 35.2319 -79.5792 40° Northeast 402 463 14,800 -2,100 Descending Washington Center
03:58PM 35.3303 -79.5103 30° Northeast 375 432 12,800 -2,100 Descending Washington Center
03:58PM 35.3344 -79.5078 26° Northeast 384 442 12,700 -1,740 Descending Washington Center
03:59PM 35.3903 -79.4647 32° Northeast 365 420 11,600 -1,320 Descending Washington Center
03:59PM 35.4200 -79.4458 27° Northeast 366 421 11,400 -900 Descending Washington Center
04:00PM 35.4756 -79.4103 28° Northeast 323 372 10,700 -1,200 Descending Washington Center
04:00PM 35.4992 -79.3883 37° Northeast 333 383 10,200 -1,020 Descending Washington Center
04:01PM 35.5361 -79.3392 47° Northeast 300 345 9,700 -1,020 Descending Washington Center
04:01PM 35.5517 -79.3117 55° Northeast 299 344 9,200 -1,620 Descending Washington Center
04:02PM 35.5806 -79.2517 59° Northeast 299 344 8,100 -1,560 Descending Washington Center
04:02PM 35.5983 -79.2194 56° Northeast 299 344 7,700 -1,200 Descending Washington Center
04:03PM 35.6225 -79.1744 57° Northeast 298 343 7,000 -1,320 Descending Washington Center
04:03PM 35.6406 -79.1344 61° Northeast 293 337 6,400 -1,440 Descending Washington Center
04:04PM 35.6606 -79.0892 61° Northeast 286 329 5,600 -900 Descending Washington Center
04:04PM 35.6803 -79.0544 55° Northeast 279 321 5,500 -240 Descending Washington Center
04:05PM 35.6897 -79.0164 73° East 247 284 5,400 -600 Descending Washington Center
04:05PM 35.7053 -78.9839 59° Northeast 252 290 4,900 -900 Descending Washington Center
04:06PM 35.7289 -78.9592 40° Northeast 207 238 4,500 -720 Descending Washington Center
04:06PM 35.7461 -78.9394 43° Northeast 234 269 4,200 -1,020 Descending Washington Center
04:07PM 35.7656 -78.9172 43° Northeast 194 223 3,600 -1,140 Descending Washington Center
04:07PM 35.7869 -78.8950 40° Northeast 202 232 3,100 -1,200 Descending Washington Center
04:08PM 35.8022 -78.8753 46° Northeast 181 208 2,400 -1,260 Descending Washington Center
04:09PM 35.8367 -78.8331 45° Northeast 158 182 1,200 -1,200 Descending Washington Center
04:11PM 35.8667 -78.7833 51° Northeast  Level FlightAware Approximate
04:18PM 35.8776 -78.7875 51° Northeast  Level Estimated
04:19PM 35.8776 -78.7875 51° Northeast  Level Estimated
04:20PM 35.8776 -78.7875 51° Northeast  Level Estimated
04:21PM 35.8776 -78.7875 51° Northeast  Level Estimated
04:22PM 35.8776 -78.7875 51° Northeast  Level Estimated
04:23PM 35.8776 -78.7875 51° Northeast  Level Estimated
04:24PM 35.8776 -78.7875 51° Northeast  Level Estimated
04:25PM 35.8776 -78.7875 51° Northeast  Level Estimated